Ide Min — PC8366 — position and weather

sailwx.info

Track history (hours):
 
Tides and Currents Weather Stations Pressure Air Temp Water Temp Dewpoint Dewpoint Depression Visibility Wind Speed Wind Dir Waves Ship Positions

Ide Min (Netherlands)

Ship's website: http://www.idemin.nl/english/english.html

Last reported at 2014-Sep-16 13:21 UTC. Time now 2014-Sep-16 19:29 UTC.
Position N 55°16' E 009°42'.

Length 40 m; draft 2.4 m.

MMSI: 244537000.

Date/timePositionNaut miles runAvg speedWind from/ knotsBaromVisibWave heightAir tempDewpointWater temp
2014-Sep-16 13:21N 55°16' E 009°42'5 5.9
2014-Sep-16 12:33N 55°11' E 009°43'4 4.4
2014-Sep-16 11:33N 55°07' E 009°41'5 5.4
2014-Sep-16 10:33N 55°02' E 009°39'5 4.6
2014-Sep-16 09:33N 54°59' E 009°45'4 4.1
2014-Sep-16 08:28N 54°55' E 009°47'0 0.0
2014-Sep-16 07:28N 54°55' E 009°47'0 0.0
2014-Sep-16 06:31N 54°55' E 009°47'0 0.0
2014-Sep-16 05:16N 54°55' E 009°47'0 0.0
2014-Sep-16 04:31N 54°55' E 009°47'0 0.0
2014-Sep-16 03:31N 54°55' E 009°47'0 0.0
2014-Sep-16 02:04N 54°55' E 009°47'0 0.0
2014-Sep-16 01:16N 54°55' E 009°47'0 0.0
2014-Sep-16 00:31N 54°55' E 009°47'0 0.0
2014-Sep-15 23:19N 54°55' E 009°47'0 0.0
2014-Sep-15 22:25N 54°55' E 009°47'0 0.0
2014-Sep-15 21:07N 54°55' E 009°47'0 0.0
2014-Sep-15 20:25N 54°55' E 009°47'0 0.0
2014-Sep-15 19:28N 54°55' E 009°47'0 0.0
2014-Sep-15 18:28N 54°55' E 009°47'0 0.0
2014-Sep-15 17:28N 54°55' E 009°47'0 0.0
2014-Sep-15 16:31N 54°55' E 009°47'5 5.4
2014-Sep-15 15:33N 54°51' E 009°53'8 8.1
2014-Sep-15 14:33N 54°45' E 010°03'  
Track history (hours):
 
Tides and Currents Weather Stations Pressure Air Temp Water Temp Dewpoint Dewpoint Depression Visibility Wind Speed Wind Dir Waves Ship Positions

Ide Min (Netherlands)

Ship's website: http://www.idemin.nl/english/english.html

Last reported at 2014-Sep-16 13:21 UTC. Time now 2014-Sep-16 19:29 UTC.
Position N 55°16' E 009°42'.

Length 40 m; draft 2.4 m.

MMSI: 244537000.

Date/timePositionNaut miles runAvg speedWind from/ knotsBaromVisibWave heightAir tempDewpointWater temp
2014-Sep-16 13:21N 55°16' E 009°42'5 5.9
2014-Sep-16 12:33N 55°11' E 009°43'4 4.4
2014-Sep-16 11:33N 55°07' E 009°41'5 5.4
2014-Sep-16 10:33N 55°02' E 009°39'5 4.6
2014-Sep-16 09:33N 54°59' E 009°45'4 4.1
2014-Sep-16 08:28N 54°55' E 009°47'0 0.0
2014-Sep-16 07:28N 54°55' E 009°47'0 0.0
2014-Sep-16 06:31N 54°55' E 009°47'0 0.0
2014-Sep-16 05:16N 54°55' E 009°47'0 0.0
2014-Sep-16 04:31N 54°55' E 009°47'0 0.0
2014-Sep-16 03:31N 54°55' E 009°47'0 0.0
2014-Sep-16 02:04N 54°55' E 009°47'0 0.0
2014-Sep-16 01:16N 54°55' E 009°47'0 0.0
2014-Sep-16 00:31N 54°55' E 009°47'0 0.0
2014-Sep-15 23:19N 54°55' E 009°47'0 0.0
2014-Sep-15 22:25N 54°55' E 009°47'0 0.0
2014-Sep-15 21:07N 54°55' E 009°47'0 0.0
2014-Sep-15 20:25N 54°55' E 009°47'0 0.0
2014-Sep-15 19:28N 54°55' E 009°47'0 0.0
2014-Sep-15 18:28N 54°55' E 009°47'0 0.0
2014-Sep-15 17:28N 54°55' E 009°47'0 0.0
2014-Sep-15 16:31N 54°55' E 009°47'5 5.4
2014-Sep-15 15:33N 54°51' E 009°53'8 8.1
2014-Sep-15 14:33N 54°45' E 010°03'  

Dump ship's entire track history